Time;durP1;ratioP1;P1;durP2;ratioP2;P2;SDS_P1;SDS_P2;PMS_P1;PMS_P2;Temp;Humidity;BMP_temperature;BMP_pressure;BME280_temperature;BME280_humidity;BME280_pressure;Samples;Min_cycle;Max_cycle;Signal;HPM_P1;HPM_P2
2022/02/18 00:00:19;;;;;;;59.60;54.63;;;;;;;9.11;100.00;100079.09;4979234;28;20050;-79
2022/02/18 00:02:45;;;;;;;66.13;60.13;;;;;;;9.09;100.00;100074.00;4990072;28;20451;-80
2022/02/18 00:05:12;;;;;;;64.38;58.08;;;;;;;9.12;100.00;100091.31;4986311;28;20059;-80
2022/02/18 00:07:39;;;;;;;62.63;57.30;;;;;;;9.10;100.00;100096.00;4987685;28;20047;-81
2022/02/18 00:10:06;;;;;;;55.53;50.58;;;;;;;9.09;100.00;100102.34;4987783;28;20054;-79
2022/02/18 00:12:34;;;;;;;50.30;45.60;;;;;;;9.05;100.00;100103.81;4986580;28;20054;-80
2022/02/18 00:15:01;;;;;;;50.95;45.80;;;;;;;8.87;100.00;100105.28;4986016;28;20534;-80
2022/02/18 00:17:28;;;;;;;56.78;51.35;;;;;;;8.92;100.00;100108.09;4989645;28;20056;-81
2022/02/18 00:19:56;;;;;;;58.92;53.10;;;;;;;8.91;100.00;100117.06;4989642;28;20046;-78
2022/02/18 00:22:23;;;;;;;58.28;53.05;;;;;;;8.92;100.00;100112.59;4977998;28;20135;-81
2022/02/18 00:24:50;;;;;;;60.92;55.20;;;;;;;9.06;100.00;100124.75;4987110;28;20125;-81
2022/02/18 00:27:17;;;;;;;62.28;55.95;;;;;;;8.98;100.00;100117.03;4990440;28;20054;-80
2022/02/18 00:29:45;;;;;;;61.42;56.03;;;;;;;8.83;100.00;100119.13;4989511;28;20063;-80
2022/02/18 00:32:12;;;;;;;71.05;64.47;;;;;;;8.63;100.00;100112.09;4987728;28;20128;-80
2022/02/18 00:34:40;;;;;;;67.97;62.08;;;;;;;8.53;100.00;100087.84;4990913;28;20050;-81
2022/02/18 00:37:06;;;;;;;68.32;62.22;;;;;;;8.35;100.00;100067.34;4986562;28;20171;-80
2022/02/18 00:39:34;;;;;;;63.60;57.78;;;;;;;8.58;100.00;100077.47;4987195;28;20061;-80
2022/02/18 00:42:01;;;;;;;66.82;60.80;;;;;;;8.66;100.00;100116.16;4991270;28;20039;-80
2022/02/18 00:44:27;;;;;;;68.95;62.70;;;;;;;8.52;100.00;100133.06;4986538;28;20058;-80
2022/02/18 00:46:56;;;;;;;59.65;54.45;;;;;;;8.68;100.00;100138.75;4985880;28;20494;-81
2022/02/18 00:49:22;;;;;;;61.03;55.50;;;;;;;8.67;100.00;100131.00;4987668;28;20062;-81
2022/02/18 00:51:49;;;;;;;61.67;56.03;;;;;;;8.60;100.00;100135.50;4987546;28;20116;-79
2022/02/18 00:54:16;;;;;;;55.70;50.75;;;;;;;8.78;100.00;100148.91;4983455;28;20116;-80
2022/02/18 00:56:44;;;;;;;62.83;57.33;;;;;;;8.70;100.00;100165.00;4984088;28;20539;-80
2022/02/18 00:59:11;;;;;;;65.05;59.28;;;;;;;8.74;100.00;100165.41;4996742;28;20558;-80
2022/02/18 01:01:37;;;;;;;59.42;53.72;;;;;;;8.74;100.00;100162.75;4991346;28;20189;-78
2022/02/18 01:04:06;;;;;;;65.65;59.70;;;;;;;8.70;100.00;100143.81;4992109;28;20495;-81
2022/02/18 01:06:32;;;;;;;69.90;63.38;;;;;;;8.68;100.00;100136.09;4985538;28;20475;-80
2022/02/18 01:08:59;;;;;;;64.57;58.42;;;;;;;8.59;100.00;100141.81;4988580;28;20112;-79
2022/02/18 01:11:26;;;;;;;65.93;59.63;;;;;;;8.55;100.00;100122.06;4985687;28;20468;-82
2022/02/18 01:13:53;;;;;;;67.60;61.40;;;;;;;8.48;100.00;100116.78;4991661;28;20112;-80
2022/02/18 01:16:20;;;;;;;61.80;56.20;;;;;;;8.42;100.00;100094.63;4992905;28;20128;-81
2022/02/18 01:18:46;;;;;;;54.83;49.10;;;;;;;8.47;100.00;100109.84;4987006;28;20069;-79
2022/02/18 01:21:15;;;;;;;51.40;46.53;;;;;;;8.53;100.00;100090.50;4986999;28;20483;-79
2022/02/18 01:23:42;;;;;;;55.90;50.50;;;;;;;8.42;100.00;100081.38;4990905;28;20137;-81
2022/02/18 01:26:08;;;;;;;56.97;51.97;;;;;;;8.39;100.00;100124.13;4985077;28;20051;-80
2022/02/18 01:28:35;;;;;;;56.13;50.55;;;;;;;8.36;100.00;100150.16;4990186;28;20129;-80
2022/02/18 01:31:02;;;;;;;55.90;50.20;;;;;;;8.39;100.00;100126.78;4985919;28;20117;-80
2022/02/18 01:33:29;;;;;;;52.33;47.30;;;;;;;8.43;100.00;100113.94;4985875;28;20054;-79
2022/02/18 01:35:55;;;;;;;54.38;49.22;;;;;;;8.38;100.00;100095.19;4986068;28;20058;-80
2022/02/18 01:38:23;;;;;;;57.00;51.72;;;;;;;8.48;100.00;100122.91;4989876;28;20042;-82
2022/02/18 01:40:50;;;;;;;55.55;50.92;;;;;;;8.73;100.00;100098.41;4988932;28;20322;-80
2022/02/18 01:43:18;;;;;;;53.67;49.03;;;;;;;8.58;100.00;100058.94;4989518;28;20530;-80
2022/02/18 01:45:45;;;;;;;52.95;48.05;;;;;;;8.64;100.00;100126.94;4995659;28;20050;-81
2022/02/18 01:48:12;;;;;;;48.65;44.33;;;;;;;8.77;100.00;100128.72;4987812;28;20455;-80
2022/02/18 01:50:39;;;;;;;50.90;46.33;;;;;;;8.76;100.00;100110.41;4988432;28;20116;-81
2022/02/18 01:53:11;;;;;;;49.75;45.08;;;;;;;8.73;100.00;100119.59;4990012;28;20515;-80
2022/02/18 01:55:39;;;;;;;48.95;44.50;;;;;;;8.64;100.00;100108.41;4983459;28;20078;-81
2022/02/18 01:58:07;;;;;;;52.72;48.05;;;;;;;8.58;100.00;100111.06;4983564;28;20055;-80
2022/02/18 02:00:35;;;;;;;50.10;45.40;;;;;;;8.46;100.00;100130.22;4992426;28;20061;-80
2022/02/18 02:03:03;;;;;;;50.03;45.55;;;;;;;8.57;100.00;100120.84;4988603;28;20125;-80
2022/02/18 02:05:30;;;;;;;46.15;41.70;;;;;;;8.53;100.00;100126.75;4987404;28;20058;-80
2022/02/18 02:07:58;;;;;;;48.55;43.67;;;;;;;8.46;100.00;100143.44;4986415;28;20120;-81
2022/02/18 02:10:25;;;;;;;48.92;44.50;;;;;;;8.45;100.00;100172.78;4985662;28;20054;-79
2022/02/18 02:12:55;;;;;;;51.75;47.13;;;;;;;8.43;100.00;100169.53;4990374;28;20046;-80
2022/02/18 02:15:24;;;;;;;54.85;49.80;;;;;;;8.47;100.00;100155.69;4981784;28;20062;-80
2022/02/18 02:17:51;;;;;;;50.83;45.95;;;;;;;8.45;100.00;100181.53;4988230;28;20140;-82
2022/02/18 02:20:18;;;;;;;50.03;45.55;;;;;;;8.49;100.00;100182.75;4987182;28;20089;-79
2022/02/18 02:22:47;;;;;;;49.85;45.70;;;;;;;8.36;100.00;100185.38;4978354;28;20113;-81
2022/02/18 02:25:14;;;;;;;46.67;42.53;;;;;;;8.45;100.00;100188.66;4986495;28;20500;-80
2022/02/18 02:27:41;;;;;;;46.75;42.78;;;;;;;8.49;100.00;100182.75;4984959;28;20121;-78
2022/02/18 02:30:12;;;;;;;48.50;44.60;;;;;;;8.38;100.00;100182.50;4981930;28;20105;-81
2022/02/18 02:32:39;;;;;;;48.65;44.72;;;;;;;8.49;100.00;100180.09;4983238;28;20527;-80
2022/02/18 02:35:08;;;;;;;51.78;47.55;;;;;;;8.40;100.00;100202.50;4987870;28;20116;-81
2022/02/18 02:37:34;;;;;;;48.65;44.40;;;;;;;8.31;100.00;100205.53;4981892;28;20057;-79
2022/02/18 02:40:03;;;;;;;45.10;41.30;;;;;;;8.23;100.00;100196.78;4988995;28;20054;-80
2022/02/18 02:42:29;;;;;;;43.72;40.03;;;;;;;8.30;100.00;100203.91;4986973;28;20050;-81
2022/02/18 02:44:56;;;;;;;46.33;42.47;;;;;;;8.22;100.00;100197.78;4991273;28;20545;-80
2022/02/18 02:47:23;;;;;;;47.67;43.80;;;;;;;8.31;100.00;100182.53;4990017;28;20120;-80
2022/02/18 02:49:49;;;;;;;47.25;43.50;;;;;;;8.46;100.00;100208.81;4986078;28;20108;-80
2022/02/18 02:52:16;;;;;;;47.20;43.38;;;;;;;8.32;100.00;100221.22;4984137;28;20066;-80
2022/02/18 02:54:44;;;;;;;44.80;41.53;;;;;;;8.39;100.00;100237.94;4983708;28;20116;-80
2022/02/18 02:57:12;;;;;;;42.58;39.13;;;;;;;8.44;100.00;100248.72;4982591;28;20070;-83
2022/02/18 02:59:38;;;;;;;50.45;46.65;;;;;;;8.41;100.00;100254.44;4989289;28;20109;-78
2022/02/18 03:02:05;;;;;;;52.45;48.22;;;;;;;8.36;100.00;100242.78;5101001;22;20117;-82
2022/02/18 03:04:32;;;;;;;51.50;47.42;;;;;;;8.29;100.00;100255.19;4987001;28;20120;-80
2022/02/18 03:06:59;;;;;;;54.70;50.08;;;;;;;8.30;100.00;100270.06;4983174;28;20046;-80
2022/02/18 03:09:26;;;;;;;58.95;54.15;;;;;;;8.22;100.00;100268.41;4991488;28;20054;-78
2022/02/18 03:11:52;;;;;;;55.75;51.33;;;;;;;8.16;100.00;100264.72;4987143;28;20046;-80
2022/02/18 03:14:20;;;;;;;43.65;40.13;;;;;;;8.28;100.00;100254.38;4984275;28;20121;-81
2022/02/18 03:16:47;;;;;;;47.72;43.45;;;;;;;8.23;100.00;100244.41;4984285;28;20078;-82
2022/02/18 03:19:14;;;;;;;43.25;39.80;;;;;;;8.31;100.00;100243.38;4983949;28;20466;-79
2022/02/18 03:21:41;;;;;;;45.63;41.90;;;;;;;8.24;100.00;100266.38;4993920;28;20109;-80
2022/02/18 03:24:08;;;;;;;40.03;37.22;;;;;;;8.21;100.00;100264.94;4988435;28;20431;-81
2022/02/18 03:26:35;;;;;;;43.65;40.63;;;;;;;8.14;100.00;100279.16;4988034;28;20102;-80
2022/02/18 03:29:01;;;;;;;41.22;38.40;;;;;;;8.20;100.00;100281.84;4984478;28;20121;-80
2022/02/18 03:31:30;;;;;;;38.47;35.70;;;;;;;8.36;100.00;100296.53;4990720;28;20486;-80
2022/02/18 03:33:57;;;;;;;46.03;42.92;;;;;;;8.26;100.00;100307.50;4994053;28;20141;-81
2022/02/18 03:36:24;;;;;;;44.85;42.08;;;;;;;8.24;100.00;100308.72;4986914;28;20054;-80
2022/02/18 03:38:54;;;;;;;43.42;40.67;;;;;;;8.16;100.00;100314.19;4988138;28;20379;-80
2022/02/18 03:41:20;;;;;;;44.00;41.55;;;;;;;8.14;100.00;100318.84;4985573;28;20051;-80
2022/02/18 03:43:47;;;;;;;44.97;42.30;;;;;;;8.14;100.00;100321.50;4995080;28;20057;-82
2022/02/18 03:46:14;;;;;;;42.42;39.30;;;;;;;8.04;100.00;100316.59;4992954;28;20483;-80
2022/02/18 03:48:42;;;;;;;42.38;39.47;;;;;;;8.07;100.00;100310.91;4985179;28;20470;-80
2022/02/18 03:51:09;;;;;;;40.60;38.15;;;;;;;8.02;100.00;100316.00;4985568;28;20054;-79
2022/02/18 03:53:36;;;;;;;38.05;35.83;;;;;;;7.94;100.00;100332.84;4984465;28;20051;-78
2022/02/18 03:56:03;;;;;;;42.38;39.88;;;;;;;8.02;100.00;100335.31;4982484;28;20055;-81
2022/02/18 03:58:29;;;;;;;41.30;38.67;;;;;;;8.09;100.00;100316.00;4995107;28;20047;-80
2022/02/18 04:00:56;;;;;;;38.95;36.85;;;;;;;8.01;100.00;100311.69;4992299;28;20073;-79
2022/02/18 04:03:23;;;;;;;35.45;33.65;;;;;;;8.06;100.00;100321.69;4986616;28;20112;-80
2022/02/18 04:05:51;;;;;;;34.85;33.05;;;;;;;8.09;100.00;100322.09;4990689;28;20113;-81
2022/02/18 04:08:18;;;;;;;33.22;31.45;;;;;;;8.19;100.00;100327.81;4990472;28;20120;-80
2022/02/18 04:10:44;;;;;;;34.83;33.22;;;;;;;8.11;100.00;100322.72;4980475;28;20121;-81
2022/02/18 04:13:11;;;;;;;38.05;36.13;;;;;;;8.13;100.00;100341.84;4997975;28;20116;-81
2022/02/18 04:15:38;;;;;;;37.58;35.78;;;;;;;8.14;100.00;100335.56;5001284;28;20113;-80
2022/02/18 04:18:06;;;;;;;34.80;33.08;;;;;;;8.21;100.00;100325.78;4986979;28;20479;-80
2022/02/18 04:20:32;;;;;;;38.33;36.30;;;;;;;8.29;100.00;100337.19;4989454;28;20046;-81
2022/02/18 04:23:00;;;;;;;35.33;33.72;;;;;;;8.18;100.00;100325.38;4995136;28;20039;-80
2022/02/18 04:25:27;;;;;;;36.30;34.42;;;;;;;8.11;100.00;100332.47;4981515;28;20046;-80
2022/02/18 04:27:55;;;;;;;35.03;33.17;;;;;;;8.12;100.00;100329.63;4986789;28;20453;-78
2022/02/18 04:30:22;;;;;;;37.33;35.72;;;;;;;8.08;100.00;100323.13;4999131;28;20120;-79
2022/02/18 04:32:50;;;;;;;36.85;34.90;;;;;;;8.12;100.00;100315.59;4988381;28;20050;-80
2022/02/18 04:35:17;;;;;;;35.42;33.78;;;;;;;8.20;100.00;100310.94;4979059;28;20050;-80
2022/02/18 04:37:44;;;;;;;33.40;31.17;;;;;;;8.20;100.00;100332.13;4983606;28;20051;-81
2022/02/18 04:40:14;;;;;;;37.95;35.28;;;;;;;8.22;100.00;100331.91;4991939;28;20050;-80
2022/02/18 04:42:41;;;;;;;42.13;39.42;;;;;;;8.27;100.00;100343.53;4991702;28;20046;-82
2022/02/18 04:45:08;;;;;;;39.05;36.95;;;;;;;8.14;100.00;100338.19;4993985;28;20046;-81
2022/02/18 04:47:36;;;;;;;39.15;37.33;;;;;;;8.18;100.00;100351.84;4986997;28;20050;-79
2022/02/18 04:50:04;;;;;;;35.60;34.00;;;;;;;8.22;100.00;100361.81;4987225;28;20047;-79
2022/02/18 04:52:33;;;;;;;35.38;33.60;;;;;;;8.27;100.00;100364.69;4986940;28;20141;-81
2022/02/18 04:55:00;;;;;;;37.97;35.90;;;;;;;8.36;100.00;100360.03;4989166;28;20049;-80
2022/02/18 04:57:28;;;;;;;38.72;36.83;;;;;;;8.16;100.00;100369.72;4993823;28;20533;-80
2022/02/18 04:59:55;;;;;;;35.88;34.08;;;;;;;7.98;100.00;100378.22;5009817;28;20456;-81
2022/02/18 05:02:22;;;;;;;36.55;34.63;;;;;;;8.09;100.00;100390.88;4988357;28;20486;-80
2022/02/18 05:04:48;;;;;;;37.30;35.03;;;;;;;7.89;100.00;100387.31;4992512;28;20050;-81
2022/02/18 05:07:15;;;;;;;34.13;32.42;;;;;;;7.77;100.00;100402.91;5002950;28;20050;-81
2022/02/18 05:09:44;;;;;;;33.10;31.25;;;;;;;7.69;100.00;100414.47;4989876;28;20059;-81
2022/02/18 05:12:11;;;;;;;32.95;31.25;;;;;;;7.83;100.00;100417.19;4991015;28;20050;-80
2022/02/18 05:14:39;;;;;;;33.20;31.30;;;;;;;7.75;100.00;100415.53;4996008;28;20058;-80
2022/02/18 05:17:05;;;;;;;36.63;34.80;;;;;;;7.98;100.00;100436.38;4991890;28;20483;-81
2022/02/18 05:19:32;;;;;;;34.90;33.22;;;;;;;7.88;100.00;100438.59;4995632;28;20116;-81
2022/02/18 05:21:59;;;;;;;32.03;30.23;;;;;;;7.44;100.00;100435.22;4997753;28;20038;-80
2022/02/18 05:24:26;;;;;;;33.72;31.80;;;;;;;7.67;100.00;100456.16;4989520;28;20050;-80
2022/02/18 05:26:52;;;;;;;32.72;31.13;;;;;;;7.53;100.00;100449.97;4988881;28;20117;-81
2022/02/18 05:29:19;;;;;;;36.70;34.80;;;;;;;7.31;100.00;100459.72;4992146;28;20434;-81
2022/02/18 05:31:47;;;;;;;36.60;34.67;;;;;;;7.65;100.00;100475.84;4996940;28;20136;-80
2022/02/18 05:34:14;;;;;;;39.30;37.30;;;;;;;7.45;100.00;100488.94;4995200;28;20054;-80
2022/02/18 05:36:41;;;;;;;38.28;36.40;;;;;;;7.42;100.00;100497.22;4994445;28;20434;-80
2022/02/18 05:39:08;;;;;;;35.53;33.83;;;;;;;7.40;100.00;100501.88;4993589;28;20054;-81
2022/02/18 05:41:34;;;;;;;37.60;35.78;;;;;;;7.24;100.00;100503.78;4993907;28;20117;-80
2022/02/18 05:44:01;;;;;;;37.00;35.17;;;;;;;7.41;100.00;100509.59;4995431;28;20101;-80
2022/02/18 05:46:28;;;;;;;36.65;34.85;;;;;;;7.73;100.00;100523.28;4995781;28;20050;-79
2022/02/18 05:48:56;;;;;;;35.78;34.28;;;;;;;7.53;100.00;100521.31;4989566;28;20055;-80
2022/02/18 05:51:24;;;;;;;37.63;35.42;;;;;;;7.31;100.00;100536.34;4988649;28;20086;-80
2022/02/18 05:53:51;;;;;;;48.20;45.65;;;;;;;7.54;100.00;100533.53;4987429;28;20386;-79
2022/02/18 05:56:18;;;;;;;53.30;50.00;;;;;;;7.45;100.00;100536.50;4991336;28;20051;-79
2022/02/18 05:58:46;;;;;;;58.67;54.45;;;;;;;7.49;100.00;100535.91;4981938;28;20128;-78
2022/02/18 06:01:13;;;;;;;60.42;55.83;;;;;;;7.57;100.00;100542.91;4993318;28;20081;-82
2022/02/18 06:03:39;;;;;;;61.53;56.88;;;;;;;7.44;100.00;100546.22;4994856;28;20116;-80
2022/02/18 06:06:07;;;;;;;64.07;57.42;;;;;;;7.71;100.00;100549.09;4994815;28;20050;-79
2022/02/18 06:08:34;;;;;;;61.53;57.03;;;;;;;7.67;100.00;100561.06;4994486;28;20109;-80
2022/02/18 06:11:01;;;;;;;63.55;58.85;;;;;;;7.65;100.00;100569.19;4993578;28;20112;-81
2022/02/18 06:13:28;;;;;;;61.67;57.38;;;;;;;7.75;100.00;100571.53;4993418;28;20054;-82
2022/02/18 06:15:54;;;;;;;60.30;56.00;;;;;;;7.50;100.00;100579.00;4993067;28;20479;-80
2022/02/18 06:18:21;;;;;;;64.00;58.80;;;;;;;7.79;100.00;100589.44;4994213;28;20054;-82
2022/02/18 06:20:48;;;;;;;63.53;58.72;;;;;;;8.03;100.00;100611.19;4995816;28;20050;-80
2022/02/18 06:23:16;;;;;;;63.85;58.85;;;;;;;7.83;100.00;100615.50;4993759;28;20046;-79
2022/02/18 06:25:43;;;;;;;63.35;58.63;;;;;;;7.59;100.00;100617.50;4985931;28;20478;-81
2022/02/18 06:28:14;;;;;;;58.58;54.53;;;;;;;7.60;100.00;100627.09;4986044;28;20525;-78
2022/02/18 06:30:41;;;;;;;57.35;53.45;;;;;;;8.04;100.00;100639.28;4987250;28;20090;-81
2022/02/18 06:33:09;;;;;;;59.15;54.97;;;;;;;8.04;100.00;100639.28;4986854;28;20062;-79
2022/02/18 06:35:36;;;;;;;67.28;62.28;;;;;;;7.88;100.00;100639.56;4988370;28;20124;-81
2022/02/18 06:38:04;;;;;;;62.33;57.53;;;;;;;8.18;100.00;100648.16;4985729;28;20050;-82
2022/02/18 06:40:32;;;;;;;64.80;59.38;;;;;;;8.14;100.00;100645.06;4989258;28;20541;-78
2022/02/18 06:42:59;;;;;;;65.70;60.80;;;;;;;8.18;100.00;100654.25;4987909;28;20051;-81
2022/02/18 06:45:26;;;;;;;67.28;61.85;;;;;;;8.21;100.00;100642.47;4992901;28;20050;-80
2022/02/18 06:47:54;;;;;;;64.63;59.55;;;;;;;8.24;100.00;100650.03;5003639;28;20050;-81
2022/02/18 06:50:20;;;;;;;64.65;59.58;;;;;;;8.11;100.00;100655.19;4992694;28;20517;-80
2022/02/18 06:52:49;;;;;;;63.95;58.97;;;;;;;8.27;100.00;100658.41;4996940;28;20380;-82
2022/02/18 06:55:17;;;;;;;61.90;57.08;;;;;;;8.54;100.00;100665.75;4995505;28;20046;-79
2022/02/18 06:57:47;;;;;;;61.67;56.92;;;;;;;8.73;100.00;100664.22;5004288;28;20050;-82
2022/02/18 07:00:16;;;;;;;61.38;56.78;;;;;;;8.57;100.00;100658.25;4983109;28;20054;-80
2022/02/18 07:02:43;;;;;;;67.60;62.35;;;;;;;8.70;100.00;100650.34;4987352;28;20085;-80
2022/02/18 07:05:13;;;;;;;63.10;58.10;;;;;;;8.83;100.00;100665.50;5000098;28;20053;-80
2022/02/18 07:07:40;;;;;;;68.65;63.22;;;;;;;8.82;100.00;100658.56;4997671;28;20046;-79
2022/02/18 07:10:09;;;;;;;66.93;61.53;;;;;;;8.89;100.00;100658.59;4989491;28;20441;-78
2022/02/18 07:12:36;;;;;;;65.00;59.78;;;;;;;8.81;100.00;100675.50;4996130;28;20058;-79
2022/02/18 07:15:05;;;;;;;65.35;60.38;;;;;;;8.92;91.30;100674.91;4994026;28;20047;-82
2022/02/18 07:17:32;;;;;;;66.13;61.35;;;;;;;8.60;91.68;100670.28;4993361;28;20054;-79
2022/02/18 07:20:01;;;;;;;64.18;59.28;;;;;;;9.20;100.00;100654.66;4989860;28;20124;-79
2022/02/18 07:22:28;;;;;;;65.18;59.72;;;;;;;9.17;89.78;100680.56;4994383;28;20043;-79
2022/02/18 07:24:55;;;;;;;69.97;64.03;;;;;;;9.29;85.94;100672.03;4992241;28;20043;-79
2022/02/18 07:27:22;;;;;;;65.57;61.13;;;;;;;9.13;88.32;100665.25;4986616;28;20053;-82
2022/02/18 07:29:49;;;;;;;64.53;60.20;;;;;;;9.04;99.29;100675.19;4998151;28;20050;-82
2022/02/18 07:32:20;;;;;;;73.28;67.35;;;;;;;9.55;91.52;100684.56;4990437;28;20108;-79
2022/02/18 07:34:47;;;;;;;63.63;59.03;;;;;;;9.58;92.83;100674.38;5000164;28;20487;-81
2022/02/18 07:37:13;;;;;;;64.35;59.20;;;;;;;9.21;91.18;100690.78;4996251;28;20117;-79
2022/02/18 07:39:41;;;;;;;68.90;63.40;;;;;;;9.64;80.04;100693.97;4992729;28;20069;-79
2022/02/18 07:42:09;;;;;;;73.25;67.65;;;;;;;9.73;86.10;100694.59;4989823;28;20478;-81
2022/02/18 07:44:36;;;;;;;73.70;68.40;;;;;;;9.74;87.37;100683.81;5010064;28;20049;-79
2022/02/18 07:47:03;;;;;;;70.85;65.40;;;;;;;9.90;76.12;100695.06;5000696;28;20046;-80
2022/02/18 07:49:32;;;;;;;75.75;70.15;;;;;;;10.39;80.08;100694.69;4993494;28;20051;-78
2022/02/18 07:51:59;;;;;;;72.32;67.40;;;;;;;9.74;78.48;100709.50;4992342;28;20073;-78
2022/02/18 07:54:25;;;;;;;67.32;62.42;;;;;;;9.73;84.97;100707.88;4992866;28;20112;-81
2022/02/18 07:56:52;;;;;;;69.70;64.60;;;;;;;10.11;75.74;100700.19;4988615;28;20128;-80
2022/02/18 07:59:19;;;;;;;72.20;67.00;;;;;;;9.98;73.94;100706.28;4992413;28;20053;-79
2022/02/18 08:01:46;;;;;;;69.63;64.47;;;;;;;9.70;87.00;100706.44;5001159;28;20120;-81
2022/02/18 08:04:12;;;;;;;68.95;63.95;;;;;;;10.26;74.78;100708.78;4996295;28;20039;-81
2022/02/18 08:06:41;;;;;;;73.35;67.80;;;;;;;10.69;73.55;100708.34;4987956;28;20468;-81
2022/02/18 08:09:07;;;;;;;72.25;66.78;;;;;;;10.48;76.69;100687.34;4990849;28;20043;-79
2022/02/18 08:11:34;;;;;;;67.32;62.38;;;;;;;10.38;79.27;100671.00;4988097;28;20050;-81
2022/02/18 08:14:01;;;;;;;66.80;61.47;;;;;;;10.46;77.67;100692.84;4996209;28;20124;-80
2022/02/18 08:16:31;;;;;;;68.10;62.35;;;;;;;10.80;69.62;100703.44;4990799;28;20057;-79
2022/02/18 08:18:58;;;;;;;70.20;65.10;;;;;;;11.02;70.98;100704.81;4994408;28;20529;-79
2022/02/18 08:21:25;;;;;;;71.65;66.20;;;;;;;10.83;72.39;100713.63;4999813;28;20055;-79
2022/02/18 08:23:53;;;;;;;76.15;70.38;;;;;;;10.21;69.20;100715.69;4989846;28;20439;-80
2022/02/18 08:26:21;;;;;;;72.30;67.40;;;;;;;10.49;71.13;100718.19;4997058;28;20050;-80
2022/02/18 08:28:47;;;;;;;66.43;61.50;;;;;;;10.65;69.31;100719.59;4996491;28;20054;-80
2022/02/18 08:31:14;;;;;;;65.97;61.47;;;;;;;10.94;69.15;100731.63;4994967;28;20054;-80
2022/02/18 08:33:41;;;;;;;70.90;65.70;;;;;;;11.31;66.17;100731.91;4989640;28;20113;-79
2022/02/18 08:36:08;;;;;;;69.03;64.13;;;;;;;10.72;74.79;100726.53;4987828;28;20051;-78
2022/02/18 08:38:35;;;;;;;69.38;64.28;;;;;;;11.28;71.08;100727.00;4989384;28;20061;-78
2022/02/18 08:41:04;;;;;;;72.65;66.90;;;;;;;10.98;69.21;100730.16;4992494;28;20379;-79
2022/02/18 08:43:31;;;;;;;71.07;66.07;;;;;;;10.63;76.21;100721.66;4984861;28;20403;-78
2022/02/18 08:45:58;;;;;;;68.72;63.33;;;;;;;10.99;68.54;100737.13;4988229;28;20074;-81
2022/02/18 08:48:24;;;;;;;67.72;62.25;;;;;;;10.84;73.41;100731.22;4993652;28;20117;-79
2022/02/18 08:50:51;;;;;;;71.55;66.28;;;;;;;11.44;64.88;100731.88;4997479;28;20113;-79
2022/02/18 08:53:18;;;;;;;72.38;67.07;;;;;;;11.80;63.27;100735.78;4991461;28;20116;-81
2022/02/18 08:55:46;;;;;;;67.95;63.13;;;;;;;11.11;67.74;100732.81;4985110;28;20055;-81
2022/02/18 08:58:14;;;;;;;64.78;60.05;;;;;;;11.10;71.42;100735.66;4993716;28;20055;-80
2022/02/18 09:00:40;;;;;;;63.03;58.72;;;;;;;11.78;63.99;100746.66;4994423;28;20046;-82
2022/02/18 09:03:07;;;;;;;62.42;58.17;;;;;;;11.54;66.00;100742.88;4994287;28;20054;-79
2022/02/18 09:05:34;;;;;;;63.67;59.03;;;;;;;10.99;67.11;100742.44;4993714;28;20120;-81
2022/02/18 09:08:01;;;;;;;72.38;67.38;;;;;;;11.40;64.68;100742.09;4996629;28;20049;-79
2022/02/18 09:10:27;;;;;;;73.65;68.35;;;;;;;10.86;65.46;100753.06;4989194;28;20042;-79
2022/02/18 09:12:54;;;;;;;75.93;70.82;;;;;;;11.38;65.96;100759.31;4987148;28;20061;-79
2022/02/18 09:15:22;;;;;;;71.63;66.32;;;;;;;10.64;70.99;100748.00;4982402;28;20054;-79
2022/02/18 09:17:49;;;;;;;71.65;66.63;;;;;;;11.94;60.22;100763.19;4987639;28;20050;-79
2022/02/18 09:20:16;;;;;;;69.72;64.53;;;;;;;12.21;60.65;100747.84;4992559;28;20160;-81
2022/02/18 09:22:43;;;;;;;68.30;63.10;;;;;;;12.12;58.57;100752.63;4996719;28;20137;-79
2022/02/18 09:25:10;;;;;;;70.03;64.90;;;;;;;11.70;63.38;100754.88;4996210;28;20050;-78
2022/02/18 09:27:36;;;;;;;74.43;69.03;;;;;;;12.30;65.55;100746.56;4996513;28;20050;-81
2022/02/18 09:30:04;;;;;;;71.00;65.85;;;;;;;12.01;60.87;100761.28;4997109;28;20537;-79
2022/02/18 09:32:32;;;;;;;65.35;60.50;;;;;;;13.18;55.62;100746.34;4990987;28;20364;-82
2022/02/18 09:35:01;;;;;;;68.15;62.95;;;;;;;12.53;57.49;100751.31;5005502;28;20453;-82
2022/02/18 09:37:28;;;;;;;73.78;67.80;;;;;;;12.20;61.38;100756.88;4989976;28;20137;-81
2022/02/18 09:39:55;;;;;;;71.32;65.93;;;;;;;11.67;66.07;100761.41;4990058;28;20128;-81
2022/02/18 09:42:22;;;;;;;69.43;64.35;;;;;;;12.30;61.50;100755.34;4992262;28;20050;-82
2022/02/18 09:44:50;;;;;;;75.82;70.22;;;;;;;11.42;68.29;100748.03;5007594;28;20108;-80
2022/02/18 09:47:17;;;;;;;77.50;71.75;;;;;;;12.29;57.14;100753.72;4995624;28;20129;-80
2022/02/18 09:49:46;;;;;;;73.97;68.22;;;;;;;11.87;57.71;100749.91;4985381;28;20046;-80
2022/02/18 09:52:15;;;;;;;79.88;73.95;;;;;;;11.51;65.94;100747.81;4988878;28;20121;-82
2022/02/18 09:54:42;;;;;;;74.20;68.35;;;;;;;11.75;61.78;100749.72;4985318;28;20050;-79
2022/02/18 09:57:09;;;;;;;67.88;63.30;;;;;;;11.48;55.22;100751.69;4985202;28;20058;-80
2022/02/18 09:59:37;;;;;;;67.82;63.33;;;;;;;11.61;65.67;100746.31;4990061;28;20458;-81
2022/02/18 10:02:04;;;;;;;64.72;60.22;;;;;;;11.67;61.20;100744.66;4987933;28;20129;-79
2022/02/18 10:04:31;;;;;;;60.88;56.78;;;;;;;11.94;65.11;100740.03;4991795;28;20050;-78
2022/02/18 10:07:02;;;;;;;65.72;60.92;;;;;;;11.84;63.65;100742.31;4982431;28;20039;-82
2022/02/18 10:09:40;;;;;;;68.65;63.65;;;;;;;11.67;65.50;100740.13;4994621;28;20046;-81
2022/02/18 10:12:09;;;;;;;73.90;68.18;;;;;;;11.40;66.16;100744.75;4986795;28;20042;-80
2022/02/18 10:14:58;;;;;;;70.57;65.30;;;;;;;11.70;65.14;100739.72;4986520;28;20133;-78
2022/02/18 10:17:36;;;;;;;74.80;69.38;;;;;;;11.96;57.83;100732.66;4998413;28;20077;-81
2022/02/18 10:20:14;;;;;;;72.80;67.55;;;;;;;11.29;66.97;100740.13;4988141;28;20050;-80
2022/02/18 10:22:54;;;;;;;63.50;59.50;;;;;;;11.35;66.00;100739.28;4978896;28;20050;-79
2022/02/18 10:25:24;;;;;;;67.30;62.75;;;;;;;11.81;64.68;100730.25;4985080;28;20050;-79
2022/02/18 10:27:52;;;;;;;66.15;61.35;;;;;;;11.61;56.90;100738.31;4993143;28;20077;-79
2022/02/18 10:30:22;;;;;;;66.07;61.28;;;;;;;11.43;60.60;100712.41;4984314;28;20503;-78
2022/02/18 10:32:50;;;;;;;64.78;59.70;;;;;;;10.79;67.14;100731.84;4986207;28;20149;-81
2022/02/18 10:35:19;;;;;;;69.43;64.72;;;;;;;12.17;57.50;100720.84;4990523;28;20553;-78
2022/02/18 10:37:53;;;;;;;73.18;68.05;;;;;;;12.38;57.08;100727.66;4986816;28;20054;-81
2022/02/18 10:40:22;;;;;;;72.20;66.80;;;;;;;12.18;54.83;100727.78;4986145;28;20058;-79
2022/02/18 10:42:50;;;;;;;68.47;63.17;;;;;;;11.37;66.46;100717.78;4983960;28;20058;-79
2022/02/18 10:45:19;;;;;;;66.38;61.38;;;;;;;11.64;64.79;100726.44;4983544;28;20042;-82
2022/02/18 10:47:48;;;;;;;69.47;64.25;;;;;;;12.27;66.99;100746.97;4985996;28;20142;-81
2022/02/18 10:50:18;;;;;;;66.40;61.45;;;;;;;12.07;63.56;100753.28;4990614;28;20120;-80
2022/02/18 10:53:14;;;;;;;67.45;62.35;;;;;;;12.56;55.17;100740.22;4987572;28;20057;-78
2022/02/18 10:55:51;;;;;;;76.38;70.65;;;;;;;11.95;56.26;100748.81;4985827;28;20478;-80
2022/02/18 10:58:23;;;;;;;72.55;67.07;;;;;;;11.56;56.63;100751.47;4990742;28;20117;-80
2022/02/18 11:01:08;;;;;;;76.53;70.63;;;;;;;11.11;66.79;100738.13;4982349;28;20108;-81
2022/02/18 11:03:37;;;;;;;77.80;71.80;;;;;;;12.40;54.03;100735.41;4983558;28;20471;-82
2022/02/18 11:06:12;;;;;;;67.15;62.65;;;;;;;13.36;50.22;100748.22;4986353;28;20054;-81
2022/02/18 11:08:47;;;;;;;65.15;61.08;;;;;;;12.57;54.54;100739.97;4994999;28;20042;-79
2022/02/18 11:11:14;;;;;;;69.53;64.47;;;;;;;12.62;63.03;100744.66;4990294;28;20541;-82